Time;durP1;ratioP1;P1;durP2;ratioP2;P2;SDS_P1;SDS_P2;PMS_P1;PMS_P2;Temp;Humidity;BMP_temperature;BMP_pressure;BME280_temperature;BME280_humidity;BME280_pressure;Samples;Min_cycle;Max_cycle;Signal;HPM_P1;HPM_P2
2021/12/15 00:02:26;;;;;;;111.97;43.33;;;10.00;99.90;;;;;;5052862;28;20526;-70
2021/12/15 00:04:55;;;;;;;118.43;44.67;;;10.00;99.90;;;;;;5052900;28;20120;-71
2021/12/15 00:07:22;;;;;;;107.28;42.85;;;10.00;99.90;;;;;;5035654;28;20044;-71
2021/12/15 00:09:48;;;;;;;121.78;44.63;;;10.00;99.90;;;;;;5052628;28;20044;-71
2021/12/15 00:12:14;;;;;;;103.78;42.17;;;10.00;99.90;;;;;;5053000;28;20045;-72
2021/12/15 00:14:42;;;;;;;126.05;42.30;;;10.00;99.90;;;;;;5052652;28;20502;-72
2021/12/15 00:17:08;;;;;;;117.85;42.55;;;10.00;99.90;;;;;;5052740;28;20045;-70
2021/12/15 00:19:34;;;;;;;108.90;42.35;;;10.00;99.90;;;;;;5052278;28;20501;-70
2021/12/15 00:22:00;;;;;;;116.07;43.03;;;10.00;99.90;;;;;;5052221;28;20526;-72
2021/12/15 00:24:27;;;;;;;108.85;42.70;;;10.00;99.90;;;;;;5052889;28;20101;-71
2021/12/15 00:26:55;;;;;;;107.60;42.67;;;10.00;99.90;;;;;;5052577;28;20037;-70
2021/12/15 00:29:21;;;;;;;109.30;41.70;;;10.00;99.90;;;;;;5052208;28;20070;-72
2021/12/15 00:31:48;;;;;;;110.88;43.53;;;10.00;99.90;;;;;;5052415;28;20134;-70
2021/12/15 00:34:15;;;;;;;124.53;43.35;;;10.00;99.90;;;;;;5052232;28;20049;-71
2021/12/15 00:36:44;;;;;;;120.55;43.05;;;10.00;99.90;;;;;;5052102;28;20068;-71
2021/12/15 00:39:12;;;;;;;128.27;45.20;;;10.00;99.90;;;;;;5053131;28;20049;-71
2021/12/15 00:41:38;;;;;;;120.72;44.35;;;10.00;99.90;;;;;;5052538;28;20123;-71
2021/12/15 00:44:05;;;;;;;119.40;43.42;;;10.00;99.90;;;;;;5052211;28;20045;-70
2021/12/15 00:46:31;;;;;;;118.90;42.05;;;10.00;99.90;;;;;;5052248;28;20056;-71
2021/12/15 00:48:58;;;;;;;114.25;41.67;;;10.00;99.90;;;;;;5052203;28;20041;-71
2021/12/15 00:51:24;;;;;;;102.05;39.47;;;10.00;99.90;;;;;;5052537;28;20110;-71
2021/12/15 00:53:50;;;;;;;110.32;41.72;;;10.00;99.90;;;;;;5058973;28;20037;-70
2021/12/15 00:56:16;;;;;;;103.50;39.92;;;10.10;99.90;;;;;;5058433;28;20041;-71
2021/12/15 00:58:41;;;;;;;110.72;40.03;;;10.00;99.90;;;;;;5059183;28;20057;-71
2021/12/15 01:01:07;;;;;;;118.22;40.92;;;10.00;99.90;;;;;;5058838;28;20033;-72
2021/12/15 01:03:33;;;;;;;100.32;38.72;;;10.00;99.90;;;;;;5042286;28;20406;-73
2021/12/15 01:06:05;;;;;;;106.75;38.55;;;10.00;99.90;;;;;;5058407;28;20036;-72
2021/12/15 01:08:36;;;;;;;111.80;40.35;;;10.00;99.90;;;;;;5058508;28;20084;-71
2021/12/15 01:21:51;;;;;;;114.38;40.17;;;10.00;99.90;;;;;;5058172;28;20561;-72
2021/12/15 01:24:18;;;;;;;108.22;38.92;;;10.00;99.90;;;;;;5058657;28;20036;-71
2021/12/15 01:26:45;;;;;;;110.85;38.80;;;10.00;99.90;;;;;;5058138;28;20064;-70
2021/12/15 01:29:10;;;;;;;122.25;41.53;;;10.00;99.90;;;;;;5058390;28;20033;-71
2021/12/15 01:31:37;;;;;;;111.93;39.08;;;10.00;99.90;;;;;;5075534;28;20039;-70
2021/12/15 01:34:03;;;;;;;126.50;40.83;;;10.00;99.90;;;;;;5041831;28;20037;-71
2021/12/15 01:36:29;;;;;;;122.43;39.67;;;10.00;99.90;;;;;;5058632;28;20430;-73
2021/12/15 01:38:55;;;;;;;128.05;40.90;;;10.00;99.90;;;;;;5058628;28;20044;-70
2021/12/15 01:41:23;;;;;;;127.50;40.42;;;10.00;99.90;;;;;;5041527;28;20095;-70
2021/12/15 01:46:54;;;;;;;138.35;41.25;;;10.00;99.90;;;;;;5058072;28;20055;-71
2021/12/15 01:49:29;;;;;;;121.55;38.60;;;10.00;99.90;;;;;;5058390;28;20082;-71
2021/12/15 01:52:04;;;;;;;132.65;39.45;;;10.00;99.90;;;;;;5057415;28;20457;-71
2021/12/15 01:54:31;;;;;;;126.18;38.03;;;10.00;99.90;;;;;;5058650;28;20045;-70
2021/12/15 01:56:57;;;;;;;126.03;38.25;;;10.00;99.90;;;;;;5058422;28;20044;-71
2021/12/15 01:59:25;;;;;;;109.53;36.92;;;10.00;99.90;;;;;;5041750;28;20383;-70
2021/12/15 02:01:51;;;;;;;111.60;37.00;;;10.00;99.90;;;;;;5057318;28;20161;-71
2021/12/15 02:04:19;;;;;;;115.32;34.95;;;10.00;99.90;;;;;;5054486;28;20135;-72
2021/12/15 02:06:46;;;;;;;114.95;35.28;;;9.90;99.90;;;;;;5055201;28;20036;-71
2021/12/15 02:09:19;;;;;;;113.78;35.88;;;9.90;99.90;;;;;;5055250;28;20059;-70
2021/12/15 02:11:45;;;;;;;115.57;35.55;;;10.00;99.90;;;;;;5055137;28;20128;-71
2021/12/15 02:14:11;;;;;;;105.55;33.88;;;10.00;99.90;;;;;;5054948;28;20143;-73
2021/12/15 02:16:36;;;;;;;115.95;34.03;;;9.90;99.90;;;;;;5054748;28;20052;-71
2021/12/15 02:19:03;;;;;;;102.53;34.70;;;10.00;99.90;;;;;;5055502;28;20408;-71
2021/12/15 02:21:29;;;;;;;103.40;33.45;;;10.00;99.90;;;;;;5054533;28;20036;-71
2021/12/15 02:23:58;;;;;;;112.75;34.97;;;10.00;99.90;;;;;;5038373;28;20037;-71
2021/12/15 02:26:36;;;;;;;107.78;33.60;;;10.00;99.90;;;;;;5054714;28;20368;-72
2021/12/15 02:29:05;;;;;;;115.07;34.95;;;10.00;99.90;;;;;;5037986;28;20506;-71
2021/12/15 02:34:18;;;;;;;101.97;34.35;;;9.90;99.90;;;;;;5054486;28;20379;-71
2021/12/15 02:39:39;;;;;;;97.70;32.53;;;9.90;99.90;;;;;;5035568;28;20051;-71
2021/12/15 02:42:05;;;;;;;94.32;33.40;;;9.90;99.90;;;;;;5054217;28;20048;-70
2021/12/15 02:44:31;;;;;;;95.20;32.05;;;9.90;99.90;;;;;;5053621;28;20414;-71
2021/12/15 02:46:57;;;;;;;94.55;32.60;;;9.90;99.90;;;;;;5053630;28;20525;-71
2021/12/15 02:49:28;;;;;;;101.65;32.97;;;9.90;99.90;;;;;;5053825;28;20037;-71
2021/12/15 02:51:57;;;;;;;105.22;33.65;;;9.90;99.90;;;;;;5054543;28;20045;-73
2021/12/15 02:54:27;;;;;;;105.95;34.05;;;9.90;99.90;;;;;;5053983;28;20060;-71
2021/12/15 02:56:53;;;;;;;;;;;9.90;99.90;;;;;;5054406;28;20053;-70
2021/12/15 02:59:31;;;;;;;105.72;32.75;;;9.90;99.90;;;;;;5054095;28;20390;-71
2021/12/15 03:02:09;;;;;;;114.47;34.35;;;9.90;99.90;;;;;;5053979;28;20483;-71
2021/12/15 03:07:24;;;;;;;115.13;35.63;;;9.80;99.90;;;;;;5053528;28;20124;-71
2021/12/15 03:15:29;;;;;;;129.30;37.47;;;9.80;99.90;;;;;;5053138;28;20111;-72
2021/12/15 03:17:59;;;;;;;121.72;36.58;;;9.80;99.90;;;;;;5054823;28;20044;-70
2021/12/15 03:20:30;;;;;;;129.75;38.80;;;9.80;99.90;;;;;;5053845;28;20497;-70
2021/12/15 03:22:57;;;;;;;134.38;38.80;;;9.90;99.90;;;;;;5053871;28;20045;-71
2021/12/15 03:25:25;;;;;;;120.88;37.65;;;9.80;99.90;;;;;;5053614;28;20041;-71
2021/12/15 03:33:54;;;;;;;127.82;39.85;;;9.80;99.90;;;;;;5040504;28;20043;-70
2021/12/15 03:36:36;;;;;;;129.25;39.70;;;9.80;99.90;;;;;;5053189;28;20045;-71
2021/12/15 03:39:04;;;;;;;128.18;39.53;;;9.80;99.90;;;;;;5052843;28;20064;-72
2021/12/15 03:41:30;;;;;;;131.70;40.55;;;9.80;99.90;;;;;;5053414;28;20037;-71
2021/12/15 03:43:56;;;;;;;141.10;42.33;;;9.80;99.90;;;;;;5053298;28;20082;-70
2021/12/15 03:46:22;;;;;;;131.10;40.45;;;9.80;99.90;;;;;;5052765;28;20048;-71
2021/12/15 03:48:48;;;;;;;146.77;43.10;;;9.80;99.90;;;;;;5052960;28;20060;-71
2021/12/15 03:51:14;;;;;;;135.45;41.50;;;9.80;99.90;;;;;;5053331;28;20044;-71
2021/12/15 03:53:42;;;;;;;139.45;41.42;;;9.80;99.90;;;;;;5053624;28;20065;-71
2021/12/15 03:56:10;;;;;;;141.93;42.70;;;9.80;99.90;;;;;;5053148;28;20128;-71
2021/12/15 03:58:35;;;;;;;142.45;42.75;;;9.80;99.90;;;;;;5052872;28;20039;-71
2021/12/15 04:01:06;;;;;;;132.27;42.28;;;9.80;99.90;;;;;;5052706;28;20161;-71
2021/12/15 04:03:39;;;;;;;138.38;42.53;;;9.80;99.90;;;;;;5052891;28;20080;-71
2021/12/15 04:06:09;;;;;;;129.23;42.50;;;9.80;99.90;;;;;;5052806;28;20483;-71
2021/12/15 04:08:35;;;;;;;121.03;39.35;;;9.80;99.90;;;;;;5052971;28;20120;-71
2021/12/15 04:11:05;;;;;;;149.27;43.63;;;9.70;99.90;;;;;;5052762;28;20064;-71
2021/12/15 04:13:32;;;;;;;130.20;42.63;;;9.80;99.90;;;;;;5052472;28;20041;-70
2021/12/15 04:16:05;;;;;;;140.32;43.28;;;9.80;99.90;;;;;;5035668;28;20044;-71
2021/12/15 04:18:31;;;;;;;136.95;43.58;;;9.80;99.90;;;;;;5052703;28;20044;-71
2021/12/15 04:20:58;;;;;;;137.05;43.40;;;9.80;99.90;;;;;;5052182;28;20552;-70
2021/12/15 04:23:24;;;;;;;133.85;42.88;;;9.80;99.90;;;;;;5052566;28;20072;-71
2021/12/15 04:25:54;;;;;;;136.90;44.22;;;9.80;99.90;;;;;;5052338;28;20055;-71
2021/12/15 04:28:24;;;;;;;138.48;45.78;;;9.80;99.90;;;;;;5051393;28;20364;-70
2021/12/15 04:30:57;;;;;;;142.88;45.33;;;9.80;99.90;;;;;;5052873;28;20044;-71
2021/12/15 04:33:44;;;;;;;138.70;45.20;;;9.80;99.90;;;;;;5035906;28;20036;-71
2021/12/15 04:36:12;;;;;;;128.85;43.75;;;9.80;99.90;;;;;;5052039;28;20049;-70
2021/12/15 04:38:39;;;;;;;150.25;45.75;;;9.80;99.90;;;;;;5051473;28;20434;-72
2021/12/15 04:41:10;;;;;;;132.98;43.53;;;9.80;99.90;;;;;;5052798;28;20044;-70
2021/12/15 04:43:40;;;;;;;135.65;45.70;;;9.80;99.90;;;;;;5052088;28;20390;-71
2021/12/15 04:46:07;;;;;;;;;;;9.80;99.90;;;;;;5052937;28;20037;-71
2021/12/15 04:48:33;;;;;;;138.25;45.20;;;9.80;99.90;;;;;;5052216;28;19916;-72
2021/12/15 04:50:59;;;;;;;146.43;47.00;;;9.80;99.90;;;;;;5051806;28;20072;-71
2021/12/15 04:53:25;;;;;;;138.02;45.90;;;9.80;99.90;;;;;;5051908;28;20079;-70
2021/12/15 04:55:51;;;;;;;144.13;47.58;;;9.80;99.90;;;;;;5052594;28;20048;-70
2021/12/15 04:58:16;;;;;;;151.32;47.50;;;9.80;99.90;;;;;;5052513;28;20087;-71
2021/12/15 05:01:04;;;;;;;146.63;48.88;;;9.70;99.90;;;;;;5052480;28;20045;-71
2021/12/15 05:03:30;;;;;;;147.23;48.22;;;9.80;99.90;;;;;;5052087;28;20049;-71
2021/12/15 05:05:56;;;;;;;144.85;49.10;;;9.80;99.90;;;;;;5051828;28;20045;-71
2021/12/15 05:08:21;;;;;;;145.55;48.00;;;9.80;99.90;;;;;;5051968;28;20045;-73
2021/12/15 05:10:47;;;;;;;143.35;46.63;;;9.80;99.90;;;;;;5052270;28;20078;-71
2021/12/15 05:13:14;;;;;;;146.70;47.95;;;9.70;99.90;;;;;;5051922;28;20049;-71
2021/12/15 05:15:40;;;;;;;144.00;49.00;;;9.80;99.90;;;;;;5051862;28;20475;-71
2021/12/15 05:18:07;;;;;;;138.57;48.00;;;9.80;99.90;;;;;;5052067;28;20175;-71
2021/12/15 05:20:35;;;;;;;139.30;49.53;;;9.80;99.90;;;;;;5051267;28;20461;-70
2021/12/15 05:23:02;;;;;;;148.40;50.67;;;9.70;99.90;;;;;;5051621;28;20048;-70
2021/12/15 05:25:28;;;;;;;132.80;47.97;;;9.80;99.90;;;;;;5052491;28;20033;-72
2021/12/15 05:27:54;;;;;;;143.98;49.65;;;9.80;99.90;;;;;;5035629;28;20048;-70
2021/12/15 05:30:20;;;;;;;140.07;50.55;;;9.80;99.90;;;;;;5051949;28;20037;-71
2021/12/15 05:32:47;;;;;;;126.25;46.95;;;9.80;99.90;;;;;;5051264;28;20095;-71
2021/12/15 05:35:20;;;;;;;146.95;49.78;;;9.80;99.90;;;;;;5051510;28;20550;-71
2021/12/15 05:37:46;;;;;;;135.95;49.95;;;9.80;99.90;;;;;;5052917;28;20123;-70
2021/12/15 05:40:13;;;;;;;131.73;48.42;;;9.80;99.90;;;;;;5055381;28;20051;-71
2021/12/15 05:42:39;;;;;;;139.80;51.60;;;9.80;99.90;;;;;;5055473;28;20056;-71
2021/12/15 05:45:06;;;;;;;128.05;49.08;;;9.80;99.90;;;;;;5055662;28;20414;-72
2021/12/15 05:47:32;;;;;;;125.28;48.53;;;9.80;99.90;;;;;;5054820;28;20044;-71
2021/12/15 05:49:57;;;;;;;129.35;48.42;;;9.80;99.90;;;;;;5055511;28;20041;-70
2021/12/15 05:52:30;;;;;;;140.68;50.95;;;9.70;99.90;;;;;;5056017;28;20123;-71
2021/12/15 05:54:56;;;;;;;131.73;50.42;;;9.80;99.90;;;;;;5038710;28;20360;-72
2021/12/15 05:57:22;;;;;;;139.80;52.63;;;9.80;99.90;;;;;;5054876;28;20443;-70
2021/12/15 05:59:48;;;;;;;141.55;52.65;;;9.80;99.90;;;;;;5055189;28;20045;-71
2021/12/15 06:02:13;;;;;;;137.13;50.63;;;9.80;99.90;;;;;;5054911;28;20045;-70
2021/12/15 06:04:39;;;;;;;139.25;51.30;;;9.80;99.90;;;;;;5055506;28;20426;-71
2021/12/15 06:07:05;;;;;;;135.85;52.05;;;9.80;99.90;;;;;;5054806;28;20072;-71
2021/12/15 06:09:32;;;;;;;133.38;51.08;;;9.80;99.90;;;;;;5055224;28;20076;-73
2021/12/15 06:11:59;;;;;;;144.43;52.92;;;9.80;99.90;;;;;;5054845;28;20049;-72
2021/12/15 06:14:27;;;;;;;136.07;51.78;;;9.70;99.90;;;;;;5054880;28;20045;-70
2021/12/15 06:17:04;;;;;;;140.40;52.67;;;9.70;99.90;;;;;;5055703;28;20049;-72
2021/12/15 06:19:29;;;;;;;128.77;49.05;;;9.70;99.90;;;;;;5055200;28;20108;-73
2021/12/15 06:21:55;;;;;;;136.65;48.60;;;9.70;99.90;;;;;;5054201;28;20186;-73
2021/12/15 06:24:21;;;;;;;145.68;49.38;;;9.70;99.90;;;;;;5054683;28;20137;-71
2021/12/15 06:26:47;;;;;;;138.95;51.95;;;9.70;99.90;;;;;;5053856;28;20127;-71
2021/12/15 06:29:12;;;;;;;136.27;50.70;;;9.70;99.90;;;;;;5054426;28;20099;-70
2021/12/15 06:31:39;;;;;;;142.38;50.60;;;9.70;99.90;;;;;;5054787;28;20451;-71
2021/12/15 06:34:05;;;;;;;140.93;51.20;;;9.70;99.90;;;;;;5055162;28;20051;-74
2021/12/15 06:36:33;;;;;;;133.43;50.70;;;9.70;99.90;;;;;;5038097;28;20087;-72
2021/12/15 06:38:59;;;;;;;136.75;49.10;;;9.70;99.90;;;;;;5054639;28;20037;-70
2021/12/15 06:41:25;;;;;;;132.70;50.13;;;9.70;99.90;;;;;;5054268;28;20088;-72
2021/12/15 06:43:56;;;;;;;141.00;52.00;;;9.70;99.90;;;;;;5054088;28;20073;-71
2021/12/15 06:59:43;;;;;;;143.43;50.90;;;9.80;99.90;;;;;;5053973;28;20387;-72
2021/12/15 07:02:09;;;;;;;148.63;50.92;;;9.70;99.90;;;;;;5054098;28;20090;-72
2021/12/15 07:04:35;;;;;;;130.30;49.75;;;9.70;99.90;;;;;;5053939;28;20041;-72
2021/12/15 07:07:04;;;;;;;139.05;50.20;;;9.70;99.90;;;;;;5053623;28;20052;-72
2021/12/15 07:09:31;;;;;;;132.38;48.72;;;9.80;99.90;;;;;;5054600;28;20045;-71
2021/12/15 07:11:56;;;;;;;135.18;49.53;;;9.80;99.90;;;;;;5052827;28;20475;-72
2021/12/15 07:14:22;;;;;;;142.02;48.38;;;9.80;99.90;;;;;;5053391;28;20044;-72
2021/12/15 07:16:51;;;;;;;135.13;49.83;;;9.80;99.90;;;;;;5037382;28;20053;-70
2021/12/15 07:19:31;;;;;;;135.38;50.15;;;9.80;99.90;;;;;;5053074;28;20072;-72
2021/12/15 07:22:27;;;;;;;133.57;48.28;;;9.80;99.90;;;;;;5053817;28;20538;-72
2021/12/15 07:24:53;;;;;;;133.32;48.47;;;9.80;99.90;;;;;;5053668;28;20071;-72
2021/12/15 07:27:19;;;;;;;136.57;48.92;;;9.80;99.90;;;;;;5053329;28;20040;-72
2021/12/15 07:29:44;;;;;;;126.55;47.08;;;9.80;99.90;;;;;;5053324;28;20081;-72
2021/12/15 07:32:10;;;;;;;125.90;47.25;;;9.80;99.90;;;;;;5037272;28;20039;-71
2021/12/15 07:34:36;;;;;;;125.20;45.95;;;9.80;99.90;;;;;;5053015;28;20131;-72
2021/12/15 07:37:02;;;;;;;138.63;48.10;;;9.80;99.90;;;;;;5053467;28;20087;-70
2021/12/15 07:39:28;;;;;;;131.50;46.33;;;9.80;99.90;;;;;;5053730;28;20109;-72
2021/12/15 07:42:04;;;;;;;127.47;46.50;;;9.80;99.90;;;;;;5036701;28;20053;-71
2021/12/15 07:44:30;;;;;;;136.30;48.17;;;9.80;99.90;;;;;;5053278;28;20084;-72
2021/12/15 07:46:56;;;;;;;132.40;47.00;;;9.80;99.90;;;;;;5053259;28;20072;-72
2021/12/15 07:49:23;;;;;;;126.25;47.70;;;9.80;99.90;;;;;;5053180;28;20033;-71
2021/12/15 07:51:53;;;;;;;125.30;46.78;;;9.80;99.90;;;;;;5053544;28;20041;-71
2021/12/15 07:54:19;;;;;;;125.13;46.25;;;9.80;99.90;;;;;;5053298;28;20075;-72
2021/12/15 07:56:46;;;;;;;136.43;48.65;;;9.80;99.90;;;;;;5053109;28;20059;-70
2021/12/15 07:59:12;;;;;;;137.63;48.50;;;9.80;99.90;;;;;;5052967;28;20541;-71
2021/12/15 08:01:38;;;;;;;138.68;47.50;;;9.80;99.90;;;;;;5052353;28;20049;-72
2021/12/15 08:04:04;;;;;;;126.30;46.90;;;9.80;99.90;;;;;;5052447;28;20116;-72
2021/12/15 08:06:30;;;;;;;130.18;45.50;;;9.80;99.90;;;;;;5052732;28;20041;-72
2021/12/15 08:08:56;;;;;;;126.00;46.33;;;9.80;99.90;;;;;;5052811;28;20127;-73
2021/12/15 08:11:22;;;;;;;133.13;49.20;;;9.80;99.90;;;;;;5052341;28;20041;-73
2021/12/15 08:13:48;;;;;;;133.30;47.10;;;9.80;99.90;;;;;;5052112;28;20045;-71
2021/12/15 08:16:14;;;;;;;132.55;46.50;;;9.80;99.90;;;;;;5052302;28;20037;-72
2021/12/15 08:18:41;;;;;;;137.38;47.70;;;9.80;99.90;;;;;;5052500;28;20041;-72
2021/12/15 08:21:09;;;;;;;128.32;46.42;;;9.90;99.90;;;;;;5052983;28;20053;-71
2021/12/15 08:23:34;;;;;;;129.65;46.80;;;9.80;99.90;;;;;;5052581;28;20056;-75
2021/12/15 08:26:00;;;;;;;127.75;45.92;;;9.80;99.90;;;;;;5052139;28;20041;-71
2021/12/15 08:28:27;;;;;;;126.10;48.70;;;9.80;99.90;;;;;;5051849;28;20128;-71
2021/12/15 08:30:53;;;;;;;132.23;46.47;;;9.80;99.90;;;;;;5052003;28;20081;-71
2021/12/15 08:33:22;;;;;;;132.30;47.97;;;9.90;99.90;;;;;;5052949;28;20036;-70
2021/12/15 08:35:56;;;;;;;129.02;46.10;;;9.80;99.90;;;;;;5051981;28;20103;-72
2021/12/15 08:38:23;;;;;;;125.75;46.20;;;9.90;99.90;;;;;;5051357;28;20041;-72
2021/12/15 08:40:51;;;;;;;134.38;47.45;;;9.90;99.90;;;;;;5051398;28;20392;-72
2021/12/15 08:43:17;;;;;;;127.13;46.25;;;9.90;99.90;;;;;;5052788;28;20087;-70
2021/12/15 08:45:50;;;;;;;134.73;46.35;;;9.90;99.90;;;;;;5052755;28;20045;-71
2021/12/15 08:48:16;;;;;;;132.68;46.47;;;9.90;99.90;;;;;;5052213;28;20485;-72
2021/12/15 08:50:43;;;;;;;132.50;46.55;;;9.90;99.90;;;;;;5051932;28;20124;-72
2021/12/15 08:53:11;;;;;;;126.20;46.28;;;9.90;99.90;;;;;;5051987;28;20475;-72
2021/12/15 08:55:41;;;;;;;128.15;49.35;;;9.90;99.90;;;;;;5051988;28;20041;-71
2021/12/15 08:58:09;;;;;;;127.68;45.05;;;9.90;99.90;;;;;;5052540;28;20052;-71
2021/12/15 09:00:35;;;;;;;128.68;43.38;;;9.90;99.90;;;;;;5035215;28;20390;-70
2021/12/15 09:03:01;;;;;;;117.25;42.22;;;9.90;99.90;;;;;;5051834;28;20124;-71
2021/12/15 09:05:27;;;;;;;124.32;44.80;;;10.00;99.90;;;;;;5051436;28;20037;-72
2021/12/15 09:07:57;;;;;;;118.70;44.90;;;9.90;99.90;;;;;;5051477;28;20047;-71
2021/12/15 09:10:24;;;;;;;114.88;41.65;;;10.00;99.90;;;;;;5052793;28;20087;-73
2021/12/15 09:12:50;;;;;;;117.05;43.00;;;10.00;99.90;;;;;;5052483;28;20041;-71
2021/12/15 09:15:17;;;;;;;113.20;44.05;;;10.00;99.90;;;;;;5055996;28;20402;-72
2021/12/15 09:17:42;;;;;;;115.25;44.65;;;10.00;99.90;;;;;;5056282;28;20209;-72
2021/12/15 09:20:11;;;;;;;116.60;43.13;;;10.00;99.90;;;;;;5055761;28;20364;-72
2021/12/15 09:22:38;;;;;;;107.57;41.33;;;10.00;99.90;;;;;;5055600;28;20167;-72
2021/12/15 09:25:09;;;;;;;105.22;41.45;;;10.00;99.90;;;;;;5055369;28;20509;-70
2021/12/15 09:27:37;;;;;;;103.85;40.30;;;10.00;99.90;;;;;;5055434;28;20044;-70
2021/12/15 09:30:12;;;;;;;105.50;40.75;;;10.00;99.90;;;;;;5054921;28;20056;-70
2021/12/15 09:32:39;;;;;;;108.45;41.75;;;10.00;99.90;;;;;;5054730;28;20037;-71
2021/12/15 09:35:07;;;;;;;114.85;41.58;;;10.10;99.90;;;;;;5054283;28;20057;-70
2021/12/15 09:37:33;;;;;;;109.32;41.35;;;10.10;99.90;;;;;;5054922;28;20372;-71
2021/12/15 09:39:59;;;;;;;106.28;40.38;;;10.10;99.90;;;;;;5037477;28;20086;-71
2021/12/15 09:42:32;;;;;;;112.28;40.78;;;10.20;99.90;;;;;;5053596;28;20060;-70
2021/12/15 09:45:14;;;;;;;110.93;42.75;;;10.10;99.90;;;;;;5053836;28;20041;-73
2021/12/15 09:48:06;;;;;;;110.32;41.42;;;10.20;99.90;;;;;;5037931;28;20037;-71
2021/12/15 09:56:50;;;;;;;94.55;39.10;;;10.20;99.90;;;;;;5054568;28;20049;-73
2021/12/15 10:17:43;;;;;;;103.30;40.17;;;10.20;99.90;;;;;;5053945;28;20056;-71
2021/12/15 10:20:15;;;;;;;104.13;39.92;;;10.20;99.90;;;;;;5054232;28;20033;-72
2021/12/15 10:22:46;;;;;;;111.50;42.20;;;10.20;99.90;;;;;;5054142;28;20048;-71
2021/12/15 10:25:24;;;;;;;107.20;40.53;;;10.30;99.90;;;;;;5036139;28;20479;-70
2021/12/15 10:28:09;;;;;;;95.78;38.58;;;10.20;99.90;;;;;;5053338;28;20041;-71
2021/12/15 10:30:43;;;;;;;98.13;39.10;;;10.20;99.90;;;;;;5053456;28;20055;-71
2021/12/15 10:33:18;;;;;;;105.40;39.30;;;10.20;99.90;;;;;;5050627;28;20049;-72
2021/12/15 10:35:47;;;;;;;98.95;37.05;;;10.20;99.90;;;;;;5033544;28;20053;-71
2021/12/15 10:38:18;;;;;;;93.68;38.03;;;10.20;99.90;;;;;;5050257;28;20041;-72
2021/12/15 10:40:55;;;;;;;83.07;34.17;;;10.30;99.90;;;;;;5033448;28;20042;-71
2021/12/15 10:43:26;;;;;;;78.30;33.00;;;10.30;99.90;;;;;;5033816;28;20513;-70
2021/12/15 10:45:57;;;;;;;77.93;33.38;;;10.30;99.90;;;;;;5033408;28;20049;-71
2021/12/15 10:48:36;;;;;;;72.95;32.20;;;10.30;99.90;;;;;;5033805;28;20041;-71
2021/12/15 10:51:25;;;;;;;69.80;33.80;;;10.30;99.90;;;;;;5055845;28;20475;-72
2021/12/15 10:53:52;;;;;;;72.57;31.05;;;10.30;99.90;;;;;;5053281;28;20080;-70
2021/12/15 10:56:21;;;;;;;61.22;29.58;;;10.40;99.90;;;;;;5049822;28;20099;-71
2021/12/15 10:58:54;;;;;;;62.25;28.85;;;10.40;99.90;;;;;;5039559;28;20037;-71
2021/12/15 11:02:02;;;;;;;57.25;27.73;;;10.50;99.90;;;;;;5052305;28;20067;-71
2021/12/15 11:04:43;;;;;;;59.42;28.02;;;10.50;99.90;;;;;;5044526;28;20057;-72
2021/12/15 11:07:19;;;;;;;60.70;28.20;;;10.50;99.90;;;;;;5053184;28;20048;-70
2021/12/15 11:10:02;;;;;;;63.35;27.05;;;10.60;99.90;;;;;;5053346;28;20052;-69
2021/12/15 11:12:37;;;;;;;55.05;27.63;;;10.60;99.90;;;;;;5053186;28;20083;-70
2021/12/15 11:15:09;;;;;;;56.10;27.13;;;10.60;99.90;;;;;;5052413;28;20094;-70
2021/12/15 11:17:42;;;;;;;60.67;26.58;;;10.70;99.90;;;;;;5052939;28;20121;-70
2021/12/15 11:20:08;;;;;;;51.70;27.08;;;10.70;99.90;;;;;;5053148;28;20053;-71
2021/12/15 11:22:36;;;;;;;58.33;26.90;;;10.70;99.90;;;;;;5053004;28;20045;-70
2021/12/15 11:25:24;;;;;;;61.53;27.35;;;10.70;99.90;;;;;;5052868;28;20056;-69
2021/12/15 11:27:54;;;;;;;57.67;25.83;;;10.70;99.90;;;;;;5052497;28;20056;-69
2021/12/15 11:30:32;;;;;;;54.47;26.40;;;10.70;99.90;;;;;;5052505;28;20164;-71
2021/12/15 11:33:01;;;;;;;57.60;26.33;;;10.70;99.90;;;;;;5052690;28;20119;-69
2021/12/15 11:35:33;;;;;;;54.43;25.37;;;10.80;99.90;;;;;;5051869;28;20123;-71
2021/12/15 11:38:13;;;;;;;50.88;25.23;;;10.70;99.90;;;;;;5052326;28;20487;-71
2021/12/15 11:40:45;;;;;;;49.53;25.48;;;10.80;99.90;;;;;;5051430;28;20098;-71
2021/12/15 11:43:26;;;;;;;54.65;25.63;;;10.70;99.90;;;;;;5052753;28;20052;-71
2021/12/15 11:45:52;;;;;;;56.05;26.00;;;10.80;99.90;;;;;;5052507;28;20075;-71
2021/12/15 11:48:22;;;;;;;49.85;25.92;;;10.80;99.90;;;;;;5052410;28;20048;-70
2021/12/15 11:50:50;;;;;;;50.78;24.50;;;10.80;99.90;;;;;;5051926;28;20132;-71
2021/12/15 11:53:33;;;;;;;56.20;25.58;;;10.70;99.90;;;;;;5051706;28;20041;-71
2021/12/15 11:56:29;;;;;;;50.22;24.88;;;10.70;99.90;;;;;;5051946;28;20452;-70
2021/12/15 11:59:02;;;;;;;56.03;25.48;;;10.70;99.90;;;;;;5035695;28;20135;-72
2021/12/15 12:01:40;;;;;;;53.47;25.52;;;10.70;99.90;;;;;;5051605;28;20131;-71
2021/12/15 12:04:31;;;;;;;52.85;25.15;;;10.70;99.90;;;;;;5052054;28;20483;-69
2021/12/15 12:07:09;;;;;;;51.47;25.98;;;10.70;99.90;;;;;;5049315;28;20080;-71
2021/12/15 12:09:38;;;;;;;47.00;23.55;;;10.70;99.90;;;;;;5052192;28;20127;-70
2021/12/15 12:12:06;;;;;;;42.72;22.33;;;10.70;99.90;;;;;;5051933;28;20072;-69
2021/12/15 12:14:48;;;;;;;45.60;23.27;;;10.70;99.90;;;;;;5051959;28;20037;-71
2021/12/15 12:17:24;;;;;;;45.53;23.00;;;10.70;99.90;;;;;;5051466;28;20044;-70
2021/12/15 12:19:58;;;;;;;48.60;22.60;;;10.70;99.90;;;;;;5035476;28;20044;-70
2021/12/15 12:22:29;;;;;;;44.72;22.30;;;10.80;99.90;;;;;;5051559;28;20059;-69
2021/12/15 12:24:59;;;;;;;44.90;21.77;;;10.80;99.90;;;;;;5051923;28;20052;-70
2021/12/15 12:27:30;;;;;;;41.55;21.77;;;10.80;99.90;;;;;;5051573;28;20045;-69
2021/12/15 12:29:58;;;;;;;45.85;21.42;;;10.80;99.90;;;;;;5051909;28;20041;-70
2021/12/15 12:32:24;;;;;;;41.25;20.27;;;10.80;99.90;;;;;;5051894;28;20091;-71
2021/12/15 12:34:53;;;;;;;41.13;20.20;;;10.80;99.90;;;;;;5051601;28;20099;-69
2021/12/15 12:37:19;;;;;;;39.75;20.23;;;10.80;99.90;;;;;;5051688;28;20049;-70
2021/12/15 12:39:49;;;;;;;39.92;20.48;;;10.80;99.90;;;;;;5051599;28;20479;-70
2021/12/15 12:42:35;;;;;;;39.00;19.77;;;10.80;99.90;;;;;;5034738;28;20053;-70
2021/12/15 12:45:37;;;;;;;42.08;19.48;;;10.80;99.90;;;;;;5051741;28;20063;-71
2021/12/15 12:59:43;;;;;;;36.22;18.23;;;10.80;99.90;;;;;;5051537;28;20056;-71
2021/12/15 13:02:38;;;;;;;34.95;19.10;;;10.70;99.90;;;;;;5051508;28;20040;-70
2021/12/15 13:05:07;;;;;;;37.78;20.13;;;10.80;99.90;;;;;;5050168;28;20057;-70
2021/12/15 13:07:53;;;;;;;43.03;19.98;;;10.80;99.90;;;;;;5051252;28;20037;-72
2021/12/15 13:10:21;;;;;;;41.53;20.33;;;10.70;99.90;;;;;;5051157;28;20068;-70
2021/12/15 13:12:48;;;;;;;36.17;19.15;;;10.70;99.90;;;;;;5034744;28;20126;-71
2021/12/15 13:15:21;;;;;;;36.95;19.63;;;10.80;99.90;;;;;;5051228;28;20048;-70
2021/12/15 13:18:03;;;;;;;37.80;19.55;;;10.80;99.90;;;;;;5050705;28;20049;-70
2021/12/15 13:20:35;;;;;;;34.42;19.52;;;10.80;99.90;;;;;;5050653;28;20041;-70
2021/12/15 13:23:31;;;;;;;39.90;19.83;;;10.70;99.90;;;;;;5051323;28;20045;-71
2021/12/15 13:28:46;;;;;;;38.15;19.80;;;10.70;99.90;;;;;;5051284;28;20107;-69
2021/12/15 13:31:20;;;;;;;37.13;19.10;;;10.70;99.90;;;;;;5051656;28;20045;-70
2021/12/15 13:33:50;;;;;;;37.20;20.30;;;10.70;99.90;;;;;;5051925;28;20094;-70
2021/12/15 13:36:19;;;;;;;;;;;10.60;99.90;;;;;;5052187;28;20041;-70
2021/12/15 13:38:56;;;;;;;36.78;19.40;;;10.70;99.90;;;;;;5051654;28;20377;-70
2021/12/15 13:41:38;;;;;;;41.97;18.48;;;10.60;99.90;;;;;;5051375;28;20068;-70
2021/12/15 13:44:19;;;;;;;36.22;17.75;;;10.60;99.90;;;;;;5051880;28;20041;-70
2021/12/15 13:46:46;;;;;;;29.92;15.38;;;10.60;99.90;;;;;;5051508;28;20052;-71
2021/12/15 13:49:45;;;;;;;28.50;14.75;;;10.60;99.90;;;;;;5051494;28;20044;-72
2021/12/15 13:52:16;;;;;;;26.70;13.38;;;10.60;99.90;;;;;;5051779;28;20091;-72
2021/12/15 13:54:42;;;;;;;29.08;14.23;;;10.60;99.90;;;;;;5051587;28;20041;-69
2021/12/15 13:57:25;;;;;;;22.50;12.35;;;10.60;99.90;;;;;;5051602;28;20059;-71
2021/12/15 13:59:50;;;;;;;19.00;10.35;;;10.60;99.90;;;;;;5053939;28;20422;-70
2021/12/15 14:02:19;;;;;;;19.25;9.52;;;10.60;99.90;;;;;;5055374;28;20480;-70
2021/12/15 14:04:52;;;;;;;19.70;9.00;;;10.60;99.90;;;;;;5055288;28;20144;-71
2021/12/15 14:07:42;;;;;;;15.95;8.55;;;10.60;99.90;;;;;;5055039;28;20041;-72